Hovedside
METAR-TAF:

METAR-TAF

Lufthavner :

Córdoba, Argentina

breddegrad: 31-19S, lengdegrad: 064-13W, høyde over havet: 484 m

Gjeldene værobservasjon

Denne rapporten ble laget for 1 time og 3 minutter siden, klokken 13:00 UTC
Vind 5 kt fra Øst-nordøst
Temperatur 27°C
Luftfuktighet 45%
Trykk 1011 hPa
Sikt 10 km eller mer
Få skyer i en høyde av 3500 ft

METAR: SACO 211300Z 07005KT 9999 FEW035 27/14 Q1011

Tid: 11:03 (14:03 UTC)

Varsel

Denne rapporten ble laget for 3 timer og 3 minutter siden, klokken 11:00 UTC
Varsel gyldig fra 21. klokken 12 UTC til 22. klokken 12 UTC
Vind 5 kt fra Nordvest
Sikt 10 km eller mer
Spredte skyer i en høyde av 2500 ft
Blir
fra 21. klokken 12 UTC til 21. klokken 14 UTC
Vind 10 kt fra Nordøst
Sikt 10 km eller mer
Spredte skyer i en høyde av 3000 ft

TAF: SACO 211100Z 2112/2212 32005KT 9999 SCT025 TX33/2118Z TN16/2210Z BECMG 2112/2114 05010KT 9999 SCT030

Værobservasjoner og værvarsel for over 4000 flyplasser (METAR- og TAF-rapporter).

Tilgjengelige stasjoner er representert av de røde og gule prikkene på kartet.

Hold musepekeren over prikken for å se navnet på stasjonen.

Klikk så for å se værobservasjoner og -varsler.

For å forandre kartet kan du klikke på den grønne knappen med svart kryss for å zoome inn, på den grønne knappen med strek for å zoome ut, eller på de grønne pilene for å se tilstøtende kart.


METAR-TAF: